Flight Track Log - Related Links

Times and Time Zones

All times are in EST time to prevent confusion due to time zone crossing. See the EJA922 flight status page for this flight to view local times or setup timezone preferences in your user account.

Time Position Orientation Groundspeed Altitude Reporting Facility
EST Latitude Longitude Course Direction KTS MPH feet Rate Location/Type
Tue 04:57:06 PM 45.5806 -122.5483 102° East 188 216 1,300  Level Seattle Center
Tue 04:58:01 PM 45.5736 -122.4642 97° East 249 287 4,600 3,246 Climbing Seattle Center
Tue 04:58:07 PM 45.5739 -122.4569 87° East 236 272 4,600 2,727 Level Seattle Center
Tue 04:59:07 PM 45.5931 -122.3478 76° East 283 326 7,600 2,926 Climbing Seattle Center
Tue 05:00:08 PM 45.6317 -122.2253 66° East 324 373 10,500 2,410 Climbing Seattle Center
Tue 05:01:09 PM 45.6961 -122.1214 48° Northeast 353 406 12,500 1,820 Climbing Seattle Center
Tue 05:02:10 PM 45.7453 -121.9853 63° Northeast 393 452 14,200 1,918 Climbing Seattle Center
Tue 05:03:11 PM 45.7447 -121.8228 90° East 407 468 16,400 1,884 Climbing Seattle Center
Tue 05:04:11 PM 45.7442 -121.6689 90° East 419 482 18,000 1,785 Climbing Seattle Center
Tue 05:05:12 PM 45.7422 -121.4997 91° East 426 490 20,000 1,967 Climbing Seattle Center
Tue 05:06:13 PM 45.7403 -121.3297 91° East 428 493 22,000 1,967 Climbing Seattle Center
Tue 05:07:14 PM 45.7392 -121.1558 90° East 436 502 24,000 1,785 Climbing Seattle Center
Tue 05:08:14 PM 45.7386 -120.9811 90° East 440 506 25,600 1,636 Climbing Seattle Center
Tue 05:09:15 PM 45.7347 -120.7761 91° East 451 519 27,300 1,525 Climbing Seattle Center
Tue 05:10:16 PM 45.7325 -120.6161 91° East 462 532 28,700 1,279 Climbing Seattle Center
Tue 05:11:17 PM 45.7300 -120.4281 91° East 472 543 29,900 1,230 Climbing Seattle Center
Tue 05:12:18 PM 45.7261 -120.1847 91° East 505 581 31,200 1,388 Climbing Seattle Center
Tue 05:13:18 PM 45.7225 -119.9772 91° East 517 595 32,700 1,488 Climbing Seattle Center
Tue 05:14:19 PM 45.7172 -119.7672 92° East 524 603 34,200 1,131 Climbing Seattle Center
Tue 05:15:20 PM 45.7131 -119.5575 92° East 526 605 35,000 393 Climbing Seattle Center
Tue 05:16:21 PM 45.7083 -119.3361 92° East 554 638 35,000  Level Seattle Center
Tue 05:17:22 PM 45.7022 -119.1142 92° East 558 642 35,000  Level Seattle Center
Tue 05:18:22 PM 45.6811 -118.8978 98° East 553 636 35,000  Level Seattle Center
Tue 05:19:23 PM 45.6194 -118.6961 114° Southeast 553 636 35,000  Level Seattle Center
Tue 05:20:24 PM 45.5531 -118.4969 115° Southeast 554 638 35,000  Level Seattle Center
Tue 05:21:25 PM 45.4925 -118.2947 113° Southeast 556 640 35,000  Level Seattle Center
Tue 05:22:25 PM 45.4350 -118.0897 112° Southeast 556 640 35,000  Level Seattle Center
Tue 05:23:26 PM 45.3769 -117.8853 112° Southeast 559 643 35,000  Level Seattle Center
Tue 05:24:27 PM 45.3183 -117.6806 112° Southeast 560 644 35,000  Level Seattle Center
Tue 05:25:28 PM 45.2592 -117.4764 112° Southeast 560 644 35,000  Level Seattle Center
Tue 05:26:28 PM 45.1942 -117.2489 112° Southeast 546 628 35,000  Level Seattle Center
Tue 05:27:29 PM 45.1364 -117.0536 113° Southeast 539 620 35,000  Level Seattle Center
Tue 05:28:30 PM 45.0781 -116.8569 113° Southeast 541 623 35,000  Level Seattle Center
Tue 05:29:31 PM 45.0197 -116.6583 113° Southeast 546 628 35,000  Level Seattle Center
Tue 05:30:31 PM 44.9606 -116.4608 113° Southeast 546 628 35,000  Level Seattle Center
Tue 05:31:37 PM 44.9006 -116.2625 113° Southeast 548 631 35,000  Level Salt Lake Center
Tue 05:32:38 PM 44.8406 -116.0656 113° Southeast 545 627 35,000  Level Salt Lake Center
Tue 05:33:40 PM 44.7792 -115.8675 114° Southeast 546 628 35,000  Level Salt Lake Center
Tue 05:34:41 PM 44.7189 -115.6697 113° Southeast 546 628 35,000  Level Salt Lake Center
Tue 05:35:43 PM 44.6589 -115.4742 113° Southeast 544 626 35,000  Level Salt Lake Center
Tue 05:36:44 PM 44.5836 -115.2375 114° Southeast 550 633 35,000  Level Salt Lake Center
Tue 05:37:46 PM 44.5225 -115.0436 114° Southeast 546 628 35,000  Level Salt Lake Center
Tue 05:38:47 PM 44.4603 -114.8514 114° Southeast 543 625 35,000  Level Salt Lake Center
Tue 05:39:49 PM 44.3989 -114.6600 114° Southeast 541 623 35,000  Level Salt Lake Center
Tue 05:40:50 PM 44.3364 -114.4678 114° Southeast 543 625 35,000  Level Salt Lake Center
Tue 05:41:52 PM 44.2739 -114.2750 114° Southeast 544 626 35,000  Level Salt Lake Center
Tue 05:42:53 PM 44.2106 -114.0828 115° Southeast 546 628 35,000  Level Salt Lake Center
Tue 05:43:55 PM 44.1397 -113.8642 114° Southeast 548 631 35,000  Level Salt Lake Center
Tue 05:44:56 PM 44.0792 -113.6806 115° Southeast 547 629 35,000 -439 Level Salt Lake Center
Tue 05:45:58 PM 44.0036 -113.4664 116° Southeast 549 632 34,100 -1,073 Descending Salt Lake Center
Tue 05:46:59 PM 43.9433 -113.2867 115° Southeast 542 624 32,800 -1,317 Descending Salt Lake Center
Tue 05:48:01 PM 43.8842 -113.1106 115° Southeast 533 613 31,400 -1,500 Descending Salt Lake Center
Tue 05:49:03 PM 43.8133 -112.9072 116° Southeast 527 606 29,700 -1,512 Descending Salt Lake Center
Tue 05:50:04 PM 43.7539 -112.7344 115° Southeast 522 601 28,300 -1,279 Descending Salt Lake Center
Tue 05:51:05 PM 43.6864 -112.5369 115° Southeast 517 595 27,100 -1,073 Descending Salt Lake Center
Tue 05:52:07 PM 43.6275 -112.3708 116° Southeast 509 586 26,100 -1,610 Descending Salt Lake Center
Tue 05:53:08 PM 43.5600 -112.1797 116° Southeast 503 579 23,800 -2,244 Descending Salt Lake Center
Tue 05:54:10 PM 43.5106 -112.0131 112° Southeast 493 567 21,500 -2,129 Descending Salt Lake Center
Tue 05:55:12 PM 43.4919 -111.8439 99° East 473 544 19,400 -2,195 Descending Salt Lake Center
Tue 05:56:13 PM 43.4703 -111.6575 99° East 455 524 17,000 -2,115 Descending Salt Lake Center
Tue 05:57:14 PM 43.4536 -111.5119 99° East 434 499 15,100 -1,902 Descending Salt Lake Center
Tue 05:58:16 PM 43.4378 -111.3592 98° East 400 460 13,100 -1,659 Descending Salt Lake Center
Tue 05:59:17 PM 43.4839 -111.2806 51° Northeast 319 367 11,700 -1,415 Descending Salt Lake Center
Tue 06:00:19 PM 43.5414 -111.1986 46° Northeast 281 323 10,200 -1,220 Descending Salt Lake Center
Tue 06:01:20 PM 43.6017 -111.1706 19° North 254 292 9,200 -984 Descending Salt Lake Center

Login

Don't have an account? Register now (free) for customized features, flight alerts, and more!